Terminal Aerodrome Forecast
Issued by NWS

Current Version | Previous Version | Graphics & Text | Print | Product List | Glossary On
Versions: 1 2 3 4 5 6 7 8 9 10 11 12 13 14 15 16 17 18 19 20 21 22 23 24 25
591
FTUS41 KPBZ 211120
TAFMGW
TAF
KMGW 211120Z 2112/2212 05003KT 3SM BR OVC013
     FM212100 VRB04KT 3SM -SHRA BR OVC008
     FM220300 36004KT 2SM BR OVC003=

USA.gov is the U.S. government's official web portal to all federal, state and local government web resources and services.